createdAt,value
2018-11-28T00:00:32.418Z,26.83
2018-11-28T00:03:03.709Z,26.53
2018-11-28T00:05:34.642Z,29.30
2018-11-28T00:08:05.999Z,23.47
2018-11-28T00:10:38.501Z,24.83
2018-11-28T00:13:11.783Z,31.80
2018-11-28T00:15:44.193Z,22.73
2018-11-28T00:18:16.754Z,24.33
2018-11-28T00:20:49.430Z,25.43
2018-11-28T00:23:22.464Z,27.50
2018-11-28T00:25:58.812Z,23.80
2018-11-28T00:28:27.138Z,28.40
2018-11-28T00:30:58.329Z,23.60
2018-11-28T00:33:30.739Z,22.37
2018-11-28T00:36:01.986Z,23.47
2018-11-28T00:38:35.303Z,26.67
2018-11-28T00:41:07.840Z,27.10
2018-11-28T00:43:39.049Z,28.47
2018-11-28T00:46:11.642Z,24.90
2018-11-28T00:48:44.470Z,31.53
2018-11-28T00:51:15.599Z,22.40
2018-11-28T00:53:46.622Z,26.83
2018-11-28T00:56:17.377Z,26.97
2018-11-28T00:58:49.806Z,26.93
2018-11-28T01:01:21.030Z,23.47
2018-11-28T01:03:52.377Z,23.07
2018-11-28T01:06:23.315Z,24.53
2018-11-28T01:08:54.402Z,25.37
2018-11-28T01:11:27.458Z,25.50
2018-11-28T01:13:58.483Z,29.50
2018-11-28T01:16:29.644Z,31.00
2018-11-28T01:19:00.709Z,22.67
2018-11-28T01:21:33.417Z,23.77
2018-11-28T01:24:06.457Z,23.53
2018-11-28T01:26:39.038Z,24.97
2018-11-28T01:29:10.168Z,22.90
2018-11-28T01:31:41.326Z,22.93
2018-11-28T01:34:12.447Z,25.00
2018-11-28T01:36:43.730Z,23.37
2018-11-28T01:39:14.754Z,23.30
2018-11-28T01:41:47.362Z,22.57
2018-11-28T01:44:18.499Z,21.90
2018-11-28T01:46:49.835Z,28.43
2018-11-28T01:49:20.789Z,27.40
2018-11-28T01:51:51.695Z,29.17
2018-11-28T01:54:23.079Z,22.87
2018-11-28T01:56:53.899Z,27.60
2018-11-28T01:59:26.431Z,27.77
2018-11-28T02:01:59.422Z,23.10
2018-11-28T02:04:32.635Z,21.70
2018-11-28T02:07:03.788Z,20.80
2018-11-28T02:09:36.298Z,27.53
2018-11-28T02:12:07.905Z,25.80
2018-11-28T02:14:39.159Z,28.43
2018-11-28T02:17:11.736Z,22.57
2018-11-28T02:19:42.711Z,19.37
2018-11-28T02:22:13.681Z,28.97
2018-11-28T02:24:45.838Z,31.30
2018-11-28T02:27:18.507Z,20.73
2018-11-28T02:29:49.837Z,26.03
2018-11-28T02:32:21.307Z,26.17
2018-11-28T02:34:52.268Z,28.83
2018-11-28T02:37:21.687Z,26.73
2018-11-28T02:39:52.650Z,22.13
2018-11-28T02:42:23.471Z,24.07
2018-11-28T02:44:55.889Z,23.57
2018-11-28T02:47:26.417Z,20.13
2018-11-28T02:49:57.322Z,24.83
2018-11-28T02:52:30.223Z,28.07
2018-11-28T02:55:02.929Z,26.67
2018-11-28T02:57:36.523Z,27.47
2018-11-28T03:00:17.499Z,26.73
2018-11-28T03:02:49.926Z,28.37
2018-11-28T03:05:21.368Z,28.20
2018-11-28T03:07:52.185Z,22.63
2018-11-28T03:10:23.657Z,30.10
2018-11-28T03:12:56.236Z,27.47
2018-11-28T03:15:35.118Z,30.53
2018-11-28T03:18:07.887Z,26.80
2018-11-28T03:20:40.515Z,24.20
2018-11-28T03:23:13.154Z,28.60
2018-11-28T03:25:45.680Z,25.03
2018-11-28T03:28:18.357Z,23.37
2018-11-28T03:30:50.732Z,25.10
2018-11-28T03:33:21.544Z,27.50
2018-11-28T03:35:54.162Z,23.20
2018-11-28T03:38:27.089Z,25.87
2018-11-28T03:40:59.437Z,33.30
2018-11-28T03:43:31.776Z,28.03
2018-11-28T03:46:04.178Z,21.30
2018-11-28T03:48:35.310Z,25.53
2018-11-28T03:51:06.497Z,23.77
2018-11-28T03:53:38.960Z,27.63
2018-11-28T03:56:10.194Z,26.00
2018-11-28T03:58:42.655Z,24.63
2018-11-28T04:01:13.294Z,26.40
2018-11-28T04:03:44.032Z,26.20
2018-11-28T04:06:16.417Z,25.73
2018-11-28T04:08:47.170Z,19.03
2018-11-28T04:11:19.794Z,27.30
2018-11-28T04:13:51.113Z,24.50
2018-11-28T04:16:23.428Z,20.67
2018-11-28T04:18:54.293Z,21.43
2018-11-28T04:21:26.821Z,24.93
2018-11-28T04:23:57.505Z,23.27
2018-11-28T04:26:30.245Z,27.07
2018-11-28T04:29:02.735Z,23.13
2018-11-28T04:31:35.223Z,26.63
2018-11-28T04:34:07.778Z,21.80
2018-11-28T04:36:40.662Z,29.73
2018-11-28T04:39:13.286Z,22.50
2018-11-28T04:41:44.490Z,17.70
2018-11-28T04:44:15.487Z,26.10
2018-11-28T04:46:48.034Z,24.90
2018-11-28T04:49:18.861Z,25.77
2018-11-28T04:51:50.019Z,18.33
2018-11-28T04:54:21.179Z,22.43
2018-11-28T04:56:52.510Z,23.37
2018-11-28T04:59:23.736Z,27.47
2018-11-28T05:01:56.163Z,26.90
2018-11-28T05:04:26.229Z,21.20
2018-11-28T05:07:15.923Z,24.80
2018-11-28T05:09:47.071Z,23.00
2018-11-28T05:12:19.421Z,26.47
2018-11-28T05:14:50.770Z,29.17
2018-11-28T05:17:23.226Z,26.07
2018-11-28T05:19:56.290Z,22.90
2018-11-28T05:22:28.815Z,24.33
2018-11-28T05:25:01.045Z,24.43
2018-11-28T05:27:36.718Z,21.87
2018-11-28T05:30:10.423Z,23.77
2018-11-28T05:32:43.656Z,26.20
2018-11-28T05:35:26.181Z,28.77
2018-11-28T05:37:58.679Z,22.00
2018-11-28T05:40:29.483Z,21.67
2018-11-28T05:43:00.715Z,24.27
2018-11-28T05:45:31.849Z,25.70
2018-11-28T05:48:03.024Z,26.67
2018-11-28T05:50:34.293Z,26.43
2018-11-28T05:53:07.040Z,23.77
2018-11-28T05:55:38.093Z,24.83
2018-11-28T05:58:09.458Z,24.60
2018-11-28T06:00:42.864Z,22.90
2018-11-28T06:03:15.393Z,25.03
2018-11-28T06:05:47.751Z,22.70
2018-11-28T06:08:20.181Z,23.57
2018-11-28T06:10:51.391Z,24.00
2018-11-28T06:13:22.660Z,26.47
2018-11-28T06:15:55.075Z,26.37
2018-11-28T06:18:26.355Z,28.93
2018-11-28T06:20:57.512Z,22.87
2018-11-28T06:23:29.949Z,22.03
2018-11-28T06:26:02.758Z,20.73
2018-11-28T06:28:35.856Z,26.73
2018-11-28T06:31:08.414Z,26.43
2018-11-28T06:33:41.623Z,20.40
2018-11-28T06:36:14.162Z,26.87
2018-11-28T06:38:47.141Z,23.20
2018-11-28T06:41:18.249Z,23.50
2018-11-28T06:43:51.553Z,29.33
2018-11-28T06:46:26.171Z,27.00
2018-11-28T06:48:56.582Z,22.90
2018-11-28T06:51:25.951Z,24.43
2018-11-28T06:53:57.026Z,24.20
2018-11-28T06:56:30.139Z,23.90
2018-11-28T06:59:03.561Z,22.17
2018-11-28T07:01:40.691Z,23.83
2018-11-28T07:04:10.101Z,23.63
2018-11-28T07:06:42.987Z,26.70
2018-11-28T07:09:15.372Z,25.73
2018-11-28T07:11:44.800Z,29.90
2018-11-28T07:14:17.904Z,23.70
2018-11-28T07:16:49.205Z,25.90
2018-11-28T07:19:25.083Z,23.47
2018-11-28T07:21:56.042Z,30.77
2018-11-28T07:24:29.455Z,21.60
2018-11-28T07:27:00.707Z,26.17
2018-11-28T07:29:31.906Z,28.07
2018-11-28T07:32:04.520Z,23.97
2018-11-28T07:34:37.112Z,23.93
2018-11-28T07:37:08.432Z,25.57
2018-11-28T07:39:40.906Z,30.03
2018-11-28T07:42:12.292Z,24.17
2018-11-28T07:44:43.038Z,29.13
2018-11-28T07:47:15.527Z,30.40
2018-11-28T07:49:48.103Z,29.83
2018-11-28T07:52:19.046Z,23.13
2018-11-28T07:54:51.624Z,27.83
2018-11-28T07:57:24.159Z,26.80
2018-11-28T07:59:56.760Z,29.57
2018-11-28T08:02:29.201Z,27.53
2018-11-28T08:05:00.168Z,24.93
2018-11-28T08:10:22.142Z,27.80
2018-11-28T08:12:58.250Z,29.63
2018-11-28T08:15:29.277Z,24.37
2018-11-28T08:18:00.241Z,26.63
2018-11-28T08:20:31.694Z,24.60
2018-11-28T08:23:04.963Z,25.47
2018-11-28T08:25:37.444Z,30.30
2018-11-28T08:28:12.939Z,28.50
2018-11-28T08:30:44.137Z,27.90
2018-11-28T08:33:15.203Z,21.20
2018-11-28T08:35:47.676Z,26.67
2018-11-28T08:38:17.980Z,25.87
2018-11-28T08:40:49.326Z,25.23
2018-11-28T08:43:20.479Z,22.73
2018-11-28T08:45:53.659Z,26.13
2018-11-28T08:48:23.047Z,22.67
2018-11-28T08:50:52.970Z,26.87
2018-11-28T08:53:24.157Z,24.07
2018-11-28T08:55:56.694Z,25.90
2018-11-28T08:58:26.063Z,23.87
2018-11-28T09:00:57.107Z,29.07
2018-11-28T09:03:30.094Z,28.20
2018-11-28T09:06:02.519Z,25.43
2018-11-28T09:08:35.608Z,24.27
2018-11-28T09:11:08.060Z,26.00
2018-11-28T09:13:39.448Z,28.77
2018-11-28T09:16:10.502Z,28.73
2018-11-28T09:18:41.544Z,28.20
2018-11-28T09:21:12.827Z,23.47
2018-11-28T09:23:43.870Z,24.27
2018-11-28T09:26:22.075Z,23.40
2018-11-28T09:28:54.713Z,23.63
2018-11-28T09:31:27.109Z,25.40
2018-11-28T09:33:58.250Z,26.73
2018-11-28T09:36:29.414Z,20.90
2018-11-28T09:39:01.858Z,24.80
2018-11-28T09:41:35.077Z,26.20
2018-11-28T09:44:08.441Z,26.90
2018-11-28T09:46:41.035Z,38.80
2018-11-28T09:49:12.233Z,26.90
2018-11-28T09:51:42.900Z,29.33
2018-11-28T09:54:15.519Z,27.97
2018-11-28T09:56:46.462Z,23.03
2018-11-28T09:59:19.176Z,28.23
2018-11-28T10:01:51.613Z,30.90
2018-11-28T10:04:24.021Z,25.10
2018-11-28T10:06:54.978Z,28.53
2018-11-28T10:09:27.839Z,22.47
2018-11-28T10:11:59.985Z,28.43
2018-11-28T10:14:29.411Z,24.33
2018-11-28T10:17:00.791Z,33.70
2018-11-28T10:19:32.257Z,22.93
2018-11-28T10:22:05.588Z,25.17
2018-11-28T10:24:36.719Z,20.43
2018-11-28T10:27:09.390Z,24.83
2018-11-28T10:29:42.095Z,27.60
2018-11-28T10:32:13.117Z,25.87
2018-11-28T10:34:46.076Z,28.20
2018-11-28T10:37:16.824Z,27.27
2018-11-28T10:39:49.323Z,27.77
2018-11-28T10:42:24.729Z,26.40
2018-11-28T10:44:55.706Z,24.37
2018-11-28T10:47:26.297Z,23.37
2018-11-28T10:49:57.563Z,24.60
2018-11-28T10:52:28.776Z,25.83
2018-11-28T10:55:01.414Z,27.30
2018-11-28T10:57:33.971Z,28.77
2018-11-28T11:00:09.575Z,32.60
2018-11-28T11:03:00.466Z,26.37
2018-11-28T11:05:51.089Z,28.03
2018-11-28T11:08:25.148Z,27.50
2018-11-28T11:11:14.247Z,29.37
2018-11-28T11:14:03.374Z,29.50
2018-11-28T11:16:40.158Z,21.13
2018-11-28T11:19:11.263Z,23.20
2018-11-28T11:21:42.385Z,32.57
2018-11-28T11:24:13.309Z,33.27
2018-11-28T11:26:45.730Z,24.37
2018-11-28T11:29:18.234Z,29.97
2018-11-28T11:31:49.026Z,31.17
2018-11-28T11:34:20.397Z,28.57
2018-11-28T11:36:53.987Z,27.70
2018-11-28T11:39:29.764Z,25.77
2018-11-28T11:42:09.289Z,26.07
2018-11-28T11:44:49.870Z,23.83
2018-11-28T11:47:26.837Z,24.27
2018-11-28T11:50:03.085Z,25.40
2018-11-28T11:52:36.492Z,24.50
2018-11-28T11:55:11.168Z,25.10
2018-11-28T11:57:48.879Z,26.53
2018-11-28T12:00:24.942Z,25.57
2018-11-28T12:03:07.412Z,22.03
2018-11-28T12:05:45.245Z,24.17
2018-11-28T12:08:18.751Z,26.70
2018-11-28T12:10:54.897Z,25.30
2018-11-28T12:13:27.390Z,22.97
2018-11-28T12:16:00.499Z,24.77
2018-11-28T12:18:37.907Z,23.90
2018-11-28T12:21:10.468Z,20.90
2018-11-28T12:23:44.900Z,22.00
2018-11-28T12:26:18.270Z,24.47
2018-11-28T12:28:50.942Z,28.70
2018-11-28T12:31:24.555Z,30.67
2018-11-28T12:33:58.018Z,20.73
2018-11-28T12:36:31.332Z,22.37
2018-11-28T12:39:05.346Z,27.23
2018-11-28T12:41:38.364Z,25.93
2018-11-28T12:44:14.603Z,23.30
2018-11-28T12:46:47.324Z,26.47
2018-11-28T12:49:18.278Z,25.37
2018-11-28T12:51:52.507Z,27.13
2018-11-28T12:54:25.251Z,22.67
2018-11-28T12:56:58.459Z,21.67
2018-11-28T12:59:31.117Z,22.90
2018-11-28T13:02:04.722Z,25.43
2018-11-28T13:04:42.220Z,22.63
2018-11-28T13:07:15.822Z,23.67
2018-11-28T13:09:46.914Z,24.23
2018-11-28T13:12:20.190Z,22.97
2018-11-28T13:14:52.141Z,21.13
2018-11-28T13:17:23.607Z,25.33
2018-11-28T13:19:58.991Z,20.97
2018-11-28T13:22:27.981Z,20.73
2018-11-28T13:24:58.845Z,25.93
2018-11-28T13:27:31.903Z,21.87
2018-11-28T13:30:06.517Z,20.80
2018-11-28T13:32:37.688Z,24.53
2018-11-28T13:35:08.636Z,21.77
2018-11-28T13:37:41.282Z,22.63
2018-11-28T13:40:12.881Z,19.37
2018-11-28T13:42:46.038Z,20.47
2018-11-28T13:45:21.879Z,23.40
2018-11-28T13:47:54.767Z,17.67
2018-11-28T13:50:28.302Z,21.30
2018-11-28T13:53:01.731Z,25.87
2018-11-28T13:55:44.773Z,19.70
2018-11-28T13:58:17.587Z,19.53
2018-11-28T14:00:50.212Z,25.53
2018-11-28T14:03:24.067Z,19.20
2018-11-28T14:05:56.912Z,21.50
2018-11-28T14:08:28.342Z,21.40
2018-11-28T14:11:04.861Z,23.93
2018-11-28T14:13:37.328Z,21.60
2018-11-28T14:16:08.367Z,20.00
2018-11-28T14:18:40.874Z,20.70
2018-11-28T14:21:12.730Z,18.90
2018-11-28T14:23:46.008Z,21.70
2018-11-28T14:26:17.507Z,18.63
2018-11-28T14:28:48.674Z,22.93
2018-11-28T14:31:23.040Z,22.10
2018-11-28T14:33:55.551Z,20.53
2018-11-28T14:36:26.592Z,23.33
2018-11-28T14:38:58.014Z,21.93
2018-11-28T14:41:28.703Z,21.57
2018-11-28T14:44:04.202Z,21.30
2018-11-28T14:46:36.900Z,22.53
2018-11-28T14:49:12.447Z,20.20
2018-11-28T14:51:45.803Z,17.80
2018-11-28T14:54:18.446Z,20.13
2018-11-28T14:56:51.493Z,19.03
2018-11-28T14:59:24.956Z,20.53
2018-11-28T15:01:57.972Z,22.13
2018-11-28T15:04:30.986Z,21.83
2018-11-28T15:07:03.629Z,19.07
2018-11-28T15:09:53.286Z,18.10
2018-11-28T15:12:27.081Z,19.60
2018-11-28T15:15:18.355Z,33.03
2018-11-28T15:17:49.053Z,17.00
2018-11-28T15:20:23.034Z,16.43
2018-11-28T15:22:54.278Z,18.73
2018-11-28T15:25:27.359Z,14.33
2018-11-28T15:27:58.462Z,18.83
2018-11-28T15:30:29.781Z,18.10
2018-11-28T15:33:06.770Z,19.87
2018-11-28T15:35:42.649Z,17.97
2018-11-28T15:38:13.985Z,19.93
2018-11-28T15:40:46.719Z,15.73
2018-11-28T15:43:20.133Z,18.03
2018-11-28T15:45:52.954Z,17.20
2018-11-28T15:48:25.479Z,13.63
2018-11-28T15:50:57.967Z,16.33
2018-11-28T15:53:29.149Z,22.53
2018-11-28T15:56:00.253Z,17.63
2018-11-28T15:58:37.777Z,16.93
2018-11-28T16:01:09.020Z,19.13
2018-11-28T16:03:41.973Z,15.00
2018-11-28T16:06:14.565Z,18.63
2018-11-28T16:08:47.395Z,22.13
2018-11-28T16:11:18.920Z,16.07
2018-11-28T16:13:50.002Z,19.63
2018-11-28T16:16:21.108Z,14.07
2018-11-28T16:18:57.730Z,16.30
2018-11-28T16:21:24.649Z,16.40
2018-11-28T16:23:59.369Z,18.70
2018-11-28T16:26:30.782Z,16.97
2018-11-28T16:29:03.744Z,23.57
2018-11-28T16:31:36.639Z,16.87
2018-11-28T16:34:09.622Z,17.83
2018-11-28T16:36:45.096Z,15.87
2018-11-28T16:39:18.337Z,17.60
2018-11-28T16:41:55.584Z,17.17
2018-11-28T16:44:26.308Z,14.90
2018-11-28T16:47:01.748Z,18.67
2018-11-28T16:49:38.399Z,18.03
2018-11-28T16:52:12.913Z,21.37
2018-11-28T16:54:45.663Z,19.33
2018-11-28T16:57:17.179Z,18.53
2018-11-28T16:59:53.413Z,19.97
2018-11-28T17:02:24.843Z,17.53
2018-11-28T17:04:55.925Z,18.60
2018-11-28T17:07:32.019Z,22.73
2018-11-28T17:10:03.326Z,19.60
2018-11-28T17:12:35.790Z,18.10
2018-11-28T17:15:08.665Z,22.27
2018-11-28T17:17:39.732Z,15.27
2018-11-28T17:20:18.479Z,20.13
2018-11-28T17:22:51.778Z,15.80
2018-11-28T17:25:24.844Z,17.50
2018-11-28T17:27:57.572Z,15.83
2018-11-28T17:30:30.927Z,15.63
2018-11-28T17:33:03.605Z,14.67
2018-11-28T17:35:43.784Z,21.53
2018-11-28T17:38:14.654Z,18.60
2018-11-28T17:40:45.369Z,17.63
2018-11-28T17:43:16.702Z,18.23
2018-11-28T17:45:49.874Z,14.30
2018-11-28T17:48:20.922Z,15.37
2018-11-28T17:50:52.734Z,17.87
2018-11-28T17:53:23.148Z,17.67
2018-11-28T17:55:57.554Z,17.93
2018-11-28T17:58:28.892Z,16.50
2018-11-28T18:01:00.144Z,22.50
2018-11-28T18:03:32.765Z,16.33
2018-11-28T18:06:06.140Z,16.17
2018-11-28T18:11:24.144Z,14.73
2018-11-28T18:13:55.018Z,18.23
2018-11-28T18:16:29.596Z,17.80
2018-11-28T18:19:00.781Z,15.60
2018-11-28T18:21:34.232Z,15.90
2018-11-28T18:24:05.657Z,13.40
2018-11-28T18:26:36.874Z,15.50
2018-11-28T18:29:09.571Z,16.23
2018-11-28T18:31:43.195Z,17.77
2018-11-28T18:34:16.254Z,20.30
2018-11-28T18:36:49.863Z,17.93
2018-11-28T18:39:21.365Z,16.60
2018-11-28T18:41:52.834Z,19.60
2018-11-28T18:44:22.528Z,18.57
2018-11-28T18:46:55.440Z,17.33
2018-11-28T18:49:28.595Z,19.70
2018-11-28T18:52:00.201Z,18.40
2018-11-28T18:54:31.117Z,14.57
2018-11-28T18:57:02.601Z,19.57
2018-11-28T18:59:35.936Z,14.33
2018-11-28T19:02:08.583Z,24.30
2018-11-28T19:04:39.852Z,22.33
2018-11-28T19:07:11.331Z,13.47
2018-11-28T19:09:53.082Z,18.40
2018-11-28T19:12:26.273Z,19.63
2018-11-28T19:15:02.218Z,16.90
2018-11-28T19:17:38.400Z,15.93
2018-11-28T19:20:15.411Z,21.67
2018-11-28T19:22:48.945Z,15.57
2018-11-28T19:25:25.765Z,18.30
2018-11-28T19:27:57.592Z,17.73
2018-11-28T19:30:36.803Z,20.20
2018-11-28T19:33:12.652Z,19.53
2018-11-28T19:35:48.361Z,19.90
2018-11-28T19:38:21.042Z,17.23
2018-11-28T19:40:57.924Z,19.27
2018-11-28T19:43:30.387Z,16.73
2018-11-28T19:46:01.498Z,18.23
2018-11-28T19:48:34.514Z,23.33
2018-11-28T19:51:07.862Z,16.77
2018-11-28T19:53:42.169Z,17.90
2018-11-28T19:56:15.244Z,18.73
2018-11-28T19:58:48.806Z,21.43
2018-11-28T20:01:21.595Z,19.33
2018-11-28T20:04:00.205Z,19.97
2018-11-28T20:06:36.022Z,18.07
2018-11-28T20:09:24.408Z,17.47
2018-11-28T20:12:00.717Z,18.70
2018-11-28T20:14:34.141Z,20.73
2018-11-28T20:17:07.052Z,15.80
2018-11-28T20:19:40.313Z,19.50
2018-11-28T20:22:13.493Z,22.10
2018-11-28T20:24:46.851Z,21.93
2018-11-28T20:27:20.077Z,19.30
2018-11-28T20:29:52.741Z,21.87
2018-11-28T20:32:26.376Z,20.97
2018-11-28T20:35:02.970Z,20.83
2018-11-28T20:37:36.426Z,19.43
2018-11-28T20:40:12.686Z,18.97
2018-11-28T20:42:52.843Z,20.40
2018-11-28T20:45:25.774Z,19.33
2018-11-28T20:48:01.401Z,17.27
2018-11-28T20:50:35.160Z,20.43
2018-11-28T20:53:09.943Z,18.63
2018-11-28T20:55:42.753Z,20.53
2018-11-28T20:58:19.259Z,15.73
2018-11-28T21:00:52.178Z,17.23
2018-11-28T21:03:24.631Z,19.13
2018-11-28T21:05:57.662Z,19.73
2018-11-28T21:08:34.075Z,20.17
2018-11-28T21:11:07.709Z,16.03
2018-11-28T21:13:44.575Z,16.93
2018-11-28T21:16:19.168Z,16.13
2018-11-28T21:18:56.632Z,14.40
2018-11-28T21:21:30.015Z,17.87
2018-11-28T21:24:06.885Z,17.57
2018-11-28T21:26:43.143Z,15.53
2018-11-28T21:29:17.550Z,15.37
2018-11-28T21:31:51.177Z,19.37
2018-11-28T21:34:27.071Z,15.97
2018-11-28T21:37:01.333Z,15.50
2018-11-28T21:39:32.631Z,20.03
2018-11-28T21:42:06.925Z,16.73
2018-11-28T21:44:43.951Z,22.07
2018-11-28T21:47:16.503Z,17.27
2018-11-28T21:49:50.972Z,16.33
2018-11-28T21:52:23.622Z,18.07
2018-11-28T21:54:56.862Z,15.83
2018-11-28T21:57:32.402Z,14.90
2018-11-28T22:00:06.158Z,18.23
2018-11-28T22:02:39.641Z,13.33
2018-11-28T22:05:17.787Z,16.67
2018-11-28T22:07:51.031Z,17.57
2018-11-28T22:10:23.959Z,16.53
2018-11-28T22:12:55.340Z,17.60
2018-11-28T22:15:28.225Z,16.50
2018-11-28T22:18:01.307Z,15.20
2018-11-28T22:20:34.757Z,17.30
2018-11-28T22:23:07.858Z,17.10
2018-11-28T22:25:40.866Z,16.97
2018-11-28T22:28:13.473Z,18.13
2018-11-28T22:30:47.151Z,15.70
2018-11-28T22:33:20.180Z,14.13
2018-11-28T22:35:53.713Z,14.60
2018-11-28T22:38:26.655Z,14.00
2018-11-28T22:41:00.231Z,13.97
2018-11-28T22:43:33.683Z,15.07
2018-11-28T22:46:06.179Z,17.57
2018-11-28T22:48:39.256Z,16.23
2018-11-28T22:51:14.678Z,13.73
2018-11-28T22:53:48.084Z,13.13
2018-11-28T22:56:25.290Z,11.40
2018-11-28T22:58:57.826Z,15.40
2018-11-28T23:02:07.896Z,12.13
2018-11-28T23:04:40.789Z,12.90
2018-11-28T23:07:14.010Z,14.80
2018-11-28T23:09:47.101Z,14.50
2018-11-28T23:12:21.780Z,13.23
2018-11-28T23:14:54.180Z,11.70
2018-11-28T23:17:27.279Z,10.90
2018-11-28T23:20:00.579Z,10.13
2018-11-28T23:22:33.982Z,11.00
2018-11-28T23:25:07.785Z,13.60
2018-11-28T23:27:42.128Z,10.27
2018-11-28T23:30:18.457Z,10.97
2018-11-28T23:32:52.733Z,11.70
2018-11-28T23:35:26.155Z,12.60
2018-11-28T23:37:59.565Z,10.60
2018-11-28T23:40:29.710Z,11.73
2018-11-28T23:43:02.147Z,10.17
2018-11-28T23:45:39.396Z,11.37
2018-11-28T23:48:10.769Z,11.60
2018-11-28T23:50:46.368Z,10.27
2018-11-28T23:53:19.492Z,10.50
2018-11-28T23:55:52.122Z,9.87
2018-11-28T23:58:25.333Z,10.67
